createdAt,value
2023-04-07T00:02:03.831Z,99683.91
2023-04-07T00:04:30.373Z,99676.84
2023-04-07T00:06:56.903Z,99682.94
2023-04-07T00:09:23.311Z,99679.50
2023-04-07T00:11:49.758Z,99676.84
2023-04-07T00:14:16.228Z,99685.56
2023-04-07T00:16:42.735Z,99683.03
2023-04-07T00:19:09.192Z,99675.25
2023-04-07T00:21:35.657Z,99674.41
2023-04-07T00:24:02.111Z,99677.97
2023-04-07T00:26:31.434Z,99668.34
2023-04-07T00:28:58.873Z,99679.00
2023-04-07T00:31:25.735Z,99675.50
2023-04-07T00:33:52.289Z,99677.28
2023-04-07T00:36:18.744Z,99678.31
2023-04-07T00:38:45.315Z,99670.50
2023-04-07T00:41:11.749Z,99667.88
2023-04-07T00:43:38.258Z,99661.94
2023-04-07T00:46:04.922Z,99663.63
2023-04-07T00:48:31.588Z,99664.56
2023-04-07T00:50:58.070Z,99659.41
2023-04-07T00:53:24.694Z,99651.50
2023-04-07T00:55:51.259Z,99652.44
2023-04-07T00:58:17.764Z,99653.31
2023-04-07T01:00:50.665Z,99656.13
2023-04-07T01:03:33.933Z,99650.97
2023-04-07T01:06:06.755Z,99653.56
2023-04-07T01:08:47.923Z,99655.38
2023-04-07T01:11:28.363Z,99655.38
2023-04-07T01:13:55.372Z,99648.22
2023-04-07T01:16:30.367Z,99649.28
2023-04-07T01:19:01.757Z,99644.88
2023-04-07T01:21:29.618Z,99653.56
2023-04-07T01:24:03.744Z,99647.50
2023-04-07T01:26:33.450Z,99657.13
2023-04-07T01:29:32.342Z,99644.13
2023-04-07T01:32:02.185Z,99650.97
2023-04-07T01:34:31.554Z,99644.13
2023-04-07T01:36:59.441Z,99645.88
2023-04-07T01:39:27.821Z,99641.56
2023-04-07T01:41:56.097Z,99652.19
2023-04-07T01:44:23.055Z,99654.00
2023-04-07T01:46:53.122Z,99650.50
2023-04-07T01:49:20.351Z,99643.53
2023-04-07T01:51:50.645Z,99645.31
2023-04-07T01:54:18.136Z,99643.53
2023-04-07T01:56:45.124Z,99647.13
2023-04-07T01:59:12.099Z,99646.25
2023-04-07T02:01:38.839Z,99643.53
2023-04-07T02:04:19.574Z,99644.66
2023-04-07T02:06:54.958Z,99642.84
2023-04-07T02:09:24.240Z,99655.09
2023-04-07T02:11:52.255Z,99643.72
2023-04-07T02:14:21.422Z,99654.25
2023-04-07T02:16:49.179Z,99647.22
2023-04-07T02:19:15.821Z,99646.25
2023-04-07T02:21:43.102Z,99641.94
2023-04-07T02:24:11.970Z,99640.13
2023-04-07T02:26:38.650Z,99641.00
2023-04-07T02:29:05.622Z,99645.31
2023-04-07T02:31:32.267Z,99640.13
2023-04-07T02:33:58.739Z,99639.31
2023-04-07T02:36:26.308Z,99645.41
2023-04-07T02:38:52.805Z,99645.41
2023-04-07T02:41:19.224Z,99641.94
2023-04-07T02:43:46.005Z,99649.91
2023-04-07T02:46:13.286Z,99651.59
2023-04-07T02:48:41.230Z,99644.66
2023-04-07T02:51:07.747Z,99653.50
2023-04-07T02:53:34.262Z,99659.59
2023-04-07T02:56:00.694Z,99645.78
2023-04-07T02:58:27.126Z,99651.13
2023-04-07T03:00:53.844Z,99654.78
2023-04-07T03:03:20.990Z,99657.50
2023-04-07T03:05:47.621Z,99653.25
2023-04-07T03:08:14.100Z,99651.56
2023-04-07T03:10:40.852Z,99659.53
2023-04-07T03:13:08.286Z,99650.88
2023-04-07T03:15:34.796Z,99656.25
2023-04-07T03:18:01.319Z,99659.78
2023-04-07T03:20:27.847Z,99656.31
2023-04-07T03:22:54.256Z,99655.47
2023-04-07T03:25:21.278Z,99663.34
2023-04-07T03:27:47.702Z,99651.22
2023-04-07T03:30:14.270Z,99651.41
2023-04-07T03:32:40.715Z,99657.59
2023-04-07T03:35:07.723Z,99654.31
2023-04-07T03:37:34.160Z,99655.31
2023-04-07T03:40:00.585Z,99654.63
2023-04-07T03:42:26.993Z,99656.50
2023-04-07T03:44:53.389Z,99655.75
2023-04-07T03:47:19.824Z,99652.28
2023-04-07T03:49:46.292Z,99649.66
2023-04-07T03:52:12.757Z,99657.53
2023-04-07T03:54:39.295Z,99657.53
2023-04-07T03:57:05.781Z,99655.81
2023-04-07T03:59:32.341Z,99658.44
2023-04-07T04:04:33.426Z,99664.56
2023-04-07T04:06:59.933Z,99660.25
2023-04-07T04:09:26.515Z,99662.78
2023-04-07T04:11:53.058Z,99664.56
2023-04-07T04:14:19.670Z,99664.56
2023-04-07T04:16:46.180Z,99661.06
2023-04-07T04:19:12.703Z,99669.81
2023-04-07T04:21:39.242Z,99672.44
2023-04-07T04:24:05.803Z,99665.50
2023-04-07T04:26:32.331Z,99669.91
2023-04-07T04:28:58.856Z,99671.72
2023-04-07T04:31:31.974Z,99674.41
2023-04-07T04:33:58.484Z,99679.75
2023-04-07T04:36:24.982Z,99678.97
2023-04-07T04:38:51.693Z,99685.25
2023-04-07T04:41:18.244Z,99688.06
2023-04-07T04:43:45.229Z,99686.34
2023-04-07T04:46:11.921Z,99684.75
2023-04-07T04:48:38.372Z,99688.22
2023-04-07T04:51:05.302Z,99695.25
2023-04-07T04:53:32.579Z,99687.38
2023-04-07T04:55:59.086Z,99683.84
2023-04-07T04:58:25.720Z,99689.16
2023-04-07T05:00:58.125Z,99684.00
2023-04-07T05:03:26.556Z,99691.88
2023-04-07T05:05:53.337Z,99693.66
2023-04-07T05:08:19.915Z,99694.59
2023-04-07T05:10:47.721Z,99696.34
2023-04-07T05:13:14.543Z,99691.09
2023-04-07T05:15:41.998Z,99697.28
2023-04-07T05:18:08.559Z,99696.44
2023-04-07T05:20:35.718Z,99698.16
2023-04-07T05:23:09.801Z,99704.31
2023-04-07T05:25:36.955Z,99700.84
2023-04-07T05:28:03.617Z,99711.44
2023-04-07T05:30:30.187Z,99707.06
2023-04-07T05:32:56.877Z,99713.22
2023-04-07T05:35:23.939Z,99708.91
2023-04-07T05:37:53.219Z,99706.28
2023-04-07T05:40:20.265Z,99713.22
2023-04-07T05:42:46.793Z,99711.44
2023-04-07T05:45:13.590Z,99716.63
2023-04-07T05:47:40.491Z,99714.00
2023-04-07T05:50:07.554Z,99721.81
2023-04-07T05:52:34.106Z,99719.94
2023-04-07T05:55:00.591Z,99727.72
2023-04-07T05:57:28.468Z,99718.91
2023-04-07T05:59:55.223Z,99724.94
2023-04-07T06:02:21.788Z,99730.13
2023-04-07T06:04:48.494Z,99730.88
2023-04-07T06:07:15.181Z,99736.06
2023-04-07T06:09:42.675Z,99737.75
2023-04-07T06:12:10.717Z,99740.28
2023-04-07T06:14:37.230Z,99737.59
2023-04-07T06:17:03.985Z,99744.53
2023-04-07T06:19:30.555Z,99743.59
2023-04-07T06:21:57.109Z,99744.38
2023-04-07T06:24:25.217Z,99739.88
2023-04-07T06:26:54.926Z,99750.31
2023-04-07T06:29:21.975Z,99746.59
2023-04-07T06:31:48.537Z,99746.50
2023-04-07T06:34:15.046Z,99754.22
2023-04-07T06:36:41.562Z,99749.81
2023-04-07T06:39:08.098Z,99757.63
2023-04-07T06:41:34.684Z,99755.75
2023-04-07T06:44:13.083Z,99753.13
2023-04-07T06:46:39.717Z,99758.91
2023-04-07T06:49:06.499Z,99763.06
2023-04-07T06:51:33.109Z,99762.88
2023-04-07T06:53:59.738Z,99773.22
2023-04-07T06:56:27.129Z,99770.53
2023-04-07T06:58:53.836Z,99774.84
2023-04-07T07:01:20.530Z,99779.16
2023-04-07T07:03:47.572Z,99779.16
2023-04-07T07:06:14.488Z,99780.88
2023-04-07T07:08:41.246Z,99787.75
2023-04-07T07:11:07.875Z,99785.94
2023-04-07T07:13:34.412Z,99783.25
2023-04-07T07:16:01.025Z,99786.66
2023-04-07T07:18:28.140Z,99790.88
2023-04-07T07:20:55.878Z,99785.63
2023-04-07T07:23:22.456Z,99798.69
2023-04-07T07:25:48.953Z,99800.41
2023-04-07T07:28:16.302Z,99802.09
2023-04-07T07:30:42.941Z,99805.50
2023-04-07T07:33:09.603Z,99813.28
2023-04-07T07:35:38.006Z,99806.31
2023-04-07T07:38:04.774Z,99812.44
2023-04-07T07:40:31.349Z,99815.03
2023-04-07T07:42:57.932Z,99817.59
2023-04-07T07:45:24.703Z,99813.94
2023-04-07T07:47:51.334Z,99823.34
2023-04-07T07:50:17.939Z,99827.50
2023-04-07T07:52:44.507Z,99821.16
2023-04-07T07:55:11.373Z,99825.31
2023-04-07T07:57:37.853Z,99830.28
2023-04-07T08:00:04.794Z,99830.13
2023-04-07T08:02:32.790Z,99834.28
2023-04-07T08:05:00.584Z,99833.25
2023-04-07T08:07:27.497Z,99836.56
2023-04-07T08:09:53.940Z,99847.88
2023-04-07T08:12:20.475Z,99845.16
2023-04-07T08:14:47.133Z,99847.66
2023-04-07T08:17:13.678Z,99852.84
2023-04-07T08:19:40.298Z,99853.63
2023-04-07T08:22:06.720Z,99854.38
2023-04-07T08:24:33.189Z,99856.84
2023-04-07T08:26:59.825Z,99860.13
2023-04-07T08:29:26.329Z,99855.56
2023-04-07T08:31:52.978Z,99858.88
2023-04-07T08:34:21.200Z,99858.69
2023-04-07T08:36:47.780Z,99869.97
2023-04-07T08:39:14.405Z,99867.19
2023-04-07T08:41:42.451Z,99868.78
2023-04-07T08:44:10.612Z,99870.31
2023-04-07T08:46:41.056Z,99868.31
2023-04-07T08:49:13.964Z,99874.28
2023-04-07T08:51:48.504Z,99878.41
2023-04-07T08:54:18.695Z,99878.06
2023-04-07T08:56:45.986Z,99878.56
2023-04-07T08:59:14.561Z,99885.44
2023-04-07T09:01:41.959Z,99881.69
2023-04-07T09:04:10.400Z,99886.00
2023-04-07T09:06:38.074Z,99894.69
2023-04-07T09:09:07.992Z,99889.41
2023-04-07T09:11:37.232Z,99894.59
2023-04-07T09:14:03.904Z,99897.13
2023-04-07T09:16:33.781Z,99900.53
2023-04-07T09:19:00.503Z,99888.09
2023-04-07T09:21:30.064Z,99895.75
2023-04-07T09:23:56.843Z,99897.25
2023-04-07T09:26:25.750Z,99894.44
2023-04-07T09:28:56.778Z,99895.97
2023-04-07T09:31:26.534Z,99893.03
2023-04-07T09:33:53.441Z,99896.13
2023-04-07T09:36:20.508Z,99890.38
2023-04-07T09:38:46.909Z,99898.94
2023-04-07T09:41:16.341Z,99896.75
2023-04-07T09:43:45.377Z,99897.31
2023-04-07T09:46:17.218Z,99901.38
2023-04-07T09:48:45.758Z,99896.66
2023-04-07T09:51:13.927Z,99902.50
2023-04-07T09:53:51.651Z,99898.91
2023-04-07T09:56:22.364Z,99897.50
2023-04-07T09:58:53.291Z,99896.28
2023-04-07T10:01:21.956Z,99904.75
2023-04-07T10:03:49.328Z,99913.22
2023-04-07T10:06:16.650Z,99902.25
2023-04-07T10:08:43.888Z,99905.47
2023-04-07T10:11:10.978Z,99901.47
2023-04-07T10:13:40.329Z,99905.63
2023-04-07T10:16:08.091Z,99905.34
2023-04-07T10:18:36.805Z,99916.84
2023-04-07T10:21:06.964Z,99912.50
2023-04-07T10:23:56.708Z,99914.59
2023-04-07T10:26:26.584Z,99916.19
2023-04-07T10:29:00.367Z,99918.91
2023-04-07T10:31:27.329Z,99932.25
2023-04-07T10:33:54.891Z,99921.97
2023-04-07T10:36:22.286Z,99929.34
2023-04-07T10:39:07.315Z,99934.16
2023-04-07T10:41:41.390Z,99931.31
2023-04-07T10:44:09.984Z,99930.56
2023-04-07T10:46:56.658Z,99938.88
2023-04-07T10:49:23.109Z,99947.53
2023-04-07T10:52:12.560Z,99943.41
2023-04-07T10:54:39.880Z,99947.44
2023-04-07T10:57:18.416Z,99941.53
2023-04-07T11:00:29.660Z,99944.03
2023-04-07T11:05:28.980Z,99955.84
2023-04-07T11:07:55.528Z,99954.88
2023-04-07T11:10:23.023Z,99956.47
2023-04-07T11:13:05.143Z,99951.28
2023-04-07T11:15:32.342Z,99957.91
2023-04-07T11:18:13.495Z,99955.25
2023-04-07T11:20:55.161Z,99954.03
2023-04-07T11:23:23.831Z,99956.72
2023-04-07T11:25:52.276Z,99966.31
2023-04-07T11:28:18.955Z,99959.72
2023-04-07T11:30:48.901Z,99961.75
2023-04-07T11:33:21.418Z,99957.78
2023-04-07T11:35:51.857Z,99955.78
2023-04-07T11:38:19.252Z,99962.16
2023-04-07T11:40:46.962Z,99965.13
2023-04-07T11:43:24.954Z,99957.69
2023-04-07T11:46:09.370Z,99968.59
2023-04-07T11:48:37.236Z,99958.84
2023-04-07T11:51:04.498Z,99967.63
2023-04-07T11:53:38.133Z,99967.63
2023-04-07T11:56:16.690Z,99961.91
2023-04-07T11:58:49.723Z,99967.53
2023-04-07T12:01:16.346Z,99971.50
2023-04-07T12:03:57.351Z,99976.41
2023-04-07T12:06:34.533Z,99982.16
2023-04-07T12:09:02.687Z,99977.50
2023-04-07T12:11:30.005Z,99985.53
2023-04-07T12:13:57.087Z,99981.09
2023-04-07T12:16:24.200Z,99982.94
2023-04-07T12:18:51.592Z,99985.38
2023-04-07T12:21:18.851Z,99981.06
2023-04-07T12:23:47.507Z,99983.69
2023-04-07T12:26:14.318Z,99982.75
2023-04-07T12:28:40.779Z,99989.75
2023-04-07T12:31:07.201Z,99990.56
2023-04-07T12:33:33.601Z,99984.28
2023-04-07T12:36:00.170Z,99991.50
2023-04-07T12:38:26.957Z,99992.75
2023-04-07T12:40:53.762Z,99999.50
2023-04-07T12:43:20.176Z,99996.72
2023-04-07T12:45:47.160Z,99998.41
2023-04-07T12:48:13.703Z,99998.66
2023-04-07T12:50:40.349Z,99998.19
2023-04-07T12:53:06.781Z,99995.28
2023-04-07T12:55:33.496Z,100004.09
2023-04-07T12:58:00.458Z,100002.19
2023-04-07T13:00:26.994Z,99997.59
2023-04-07T13:02:53.503Z,100006.03
2023-04-07T13:05:20.051Z,100001.81
2023-04-07T13:07:48.274Z,100001.09
2023-04-07T13:10:16.103Z,100004.47
2023-04-07T13:12:42.477Z,99998.94
2023-04-07T13:15:09.069Z,99995.19
2023-04-07T13:17:38.740Z,99999.16
2023-04-07T13:20:06.417Z,100010.88
2023-04-07T13:22:34.736Z,100011.22
2023-04-07T13:25:02.369Z,100007.22
2023-04-07T13:27:28.867Z,100007.00
2023-04-07T13:29:55.690Z,100012.78
2023-04-07T13:32:22.209Z,100012.19
2023-04-07T13:34:48.813Z,100007.31
2023-04-07T13:37:16.513Z,100012.78
2023-04-07T13:39:42.982Z,100010.41
2023-04-07T13:42:11.449Z,100004.84
2023-04-07T13:44:40.020Z,100007.41
2023-04-07T13:47:06.656Z,100004.94
2023-04-07T13:49:33.092Z,100010.78
2023-04-07T13:51:59.564Z,100006.41
2023-04-07T13:54:25.999Z,100005.78
2023-04-07T13:56:52.753Z,100005.66
2023-04-07T13:59:19.235Z,100007.56
2023-04-07T14:01:45.713Z,100003.38
2023-04-07T14:04:12.511Z,100003.53
2023-04-07T14:06:38.973Z,99994.84
2023-04-07T14:09:06.432Z,100001.75
2023-04-07T14:11:34.651Z,99999.41
2023-04-07T14:14:01.926Z,100000.41
2023-04-07T14:16:28.577Z,99993.06
2023-04-07T14:18:55.913Z,99998.25
2023-04-07T14:21:22.828Z,99998.56
2023-04-07T14:23:50.999Z,100000.91
2023-04-07T14:26:20.026Z,100001.19
2023-04-07T14:28:47.501Z,99998.56
2023-04-07T14:31:16.033Z,100003.09
2023-04-07T14:33:43.718Z,100005.13
2023-04-07T14:36:10.460Z,100004.75
2023-04-07T14:38:37.009Z,100002.63
2023-04-07T14:43:33.519Z,100002.97
2023-04-07T14:46:00.055Z,99996.34
2023-04-07T14:48:26.637Z,100008.88
2023-04-07T14:51:06.105Z,99999.88
2023-04-07T14:53:34.977Z,100002.81
2023-04-07T14:56:04.673Z,100006.34
2023-04-07T14:58:31.917Z,99996.19
2023-04-07T15:00:58.436Z,99999.09
2023-04-07T15:03:25.115Z,100003.69
2023-04-07T15:05:51.650Z,99996.09
2023-04-07T15:08:18.056Z,100004.03
2023-04-07T15:10:44.422Z,100001.50
2023-04-07T15:13:11.106Z,100009.84
2023-04-07T15:15:37.480Z,100013.22
2023-04-07T15:18:04.379Z,100013.44
2023-04-07T15:20:30.855Z,100013.81
2023-04-07T15:22:57.338Z,100014.41
2023-04-07T15:25:23.782Z,100020.94
2023-04-07T15:27:50.245Z,100016.66
2023-04-07T15:30:16.712Z,100020.28
2023-04-07T15:32:56.522Z,100024.31
2023-04-07T15:35:23.009Z,100021.97
2023-04-07T15:37:49.468Z,100023.44
2023-04-07T15:40:16.015Z,100025.50
2023-04-07T15:42:42.450Z,100033.25
2023-04-07T15:45:09.777Z,100032.97
2023-04-07T15:47:36.295Z,100029.63
2023-04-07T15:50:02.966Z,100028.22
2023-04-07T15:52:30.724Z,100030.97
2023-04-07T15:54:57.297Z,100041.34
2023-04-07T15:57:23.776Z,100036.72
2023-04-07T15:59:50.240Z,100035.03
2023-04-07T16:02:16.774Z,100043.34
2023-04-07T16:04:44.694Z,100036.16
2023-04-07T16:07:11.286Z,100045.66
2023-04-07T16:09:37.792Z,100035.66
2023-04-07T16:12:04.492Z,100042.47
2023-04-07T16:14:31.257Z,100037.53
2023-04-07T16:17:00.826Z,100041.53
2023-04-07T16:19:27.885Z,100048.28
2023-04-07T16:21:54.830Z,100041.13
2023-04-07T16:24:22.149Z,100040.72
2023-04-07T16:26:50.584Z,100047.00
2023-04-07T16:29:17.972Z,100044.84
2023-04-07T16:31:44.697Z,100048.66
2023-04-07T16:34:12.108Z,100054.03
2023-04-07T16:36:39.152Z,100060.09
2023-04-07T16:39:05.991Z,100058.03
2023-04-07T16:41:32.986Z,100057.63
2023-04-07T16:43:59.475Z,100062.53
2023-04-07T16:46:29.904Z,100060.56
2023-04-07T16:48:56.552Z,100060.69
2023-04-07T16:51:24.760Z,100066.31
2023-04-07T16:53:51.355Z,100065.63
2023-04-07T16:56:22.828Z,100070.94
2023-04-07T16:58:50.353Z,100075.09
2023-04-07T17:01:18.174Z,100082.78
2023-04-07T17:03:48.332Z,100086.31
2023-04-07T17:06:16.520Z,100086.75
2023-04-07T17:08:43.969Z,100092.81
2023-04-07T17:11:13.194Z,100096.19
2023-04-07T17:13:40.283Z,100098.59
2023-04-07T17:16:07.076Z,100100.16
2023-04-07T17:18:33.903Z,100099.88
2023-04-07T17:21:00.580Z,100107.72
2023-04-07T17:23:28.283Z,100110.94
2023-04-07T17:25:54.896Z,100110.78
2023-04-07T17:28:21.494Z,100115.09
2023-04-07T17:30:48.106Z,100114.94
2023-04-07T17:33:14.620Z,100128.97
2023-04-07T17:35:41.141Z,100127.09
2023-04-07T17:38:07.691Z,100134.97
2023-04-07T17:40:34.176Z,100139.25
2023-04-07T17:43:00.809Z,100145.44
2023-04-07T17:45:27.471Z,100142.78
2023-04-07T17:47:54.914Z,100150.69
2023-04-07T17:50:21.519Z,100151.53
2023-04-07T17:52:47.902Z,100152.28
2023-04-07T17:55:14.531Z,100155.56
2023-04-07T17:57:41.838Z,100157.00
2023-04-07T18:00:09.080Z,100162.81
2023-04-07T18:02:35.868Z,100160.69
2023-04-07T18:05:05.862Z,100168.31
2023-04-07T18:07:32.488Z,100171.56
2023-04-07T18:09:59.128Z,100173.88
2023-04-07T18:12:25.803Z,100177.00
2023-04-07T18:14:52.420Z,100181.03
2023-04-07T18:17:18.960Z,100186.72
2023-04-07T18:19:45.538Z,100188.06
2023-04-07T18:22:12.130Z,100193.75
2023-04-07T18:24:38.677Z,100197.75
2023-04-07T18:27:05.442Z,100193.03
2023-04-07T18:29:32.054Z,100202.41
2023-04-07T18:31:58.572Z,100196.75
2023-04-07T18:34:26.196Z,100200.63
2023-04-07T18:36:53.742Z,100204.50
2023-04-07T18:39:20.257Z,100211.84
2023-04-07T18:41:48.325Z,100213.06
2023-04-07T18:44:14.904Z,100222.97
2023-04-07T18:46:41.472Z,100216.09
2023-04-07T18:49:08.099Z,100220.81
2023-04-07T18:51:35.118Z,100222.78
2023-04-07T18:54:01.661Z,100225.63
2023-04-07T18:56:29.857Z,100230.22
2023-04-07T18:58:56.460Z,100236.56
2023-04-07T19:01:23.041Z,100244.56
2023-04-07T19:03:49.753Z,100246.47
2023-04-07T19:06:16.855Z,100251.94
2023-04-07T19:08:43.402Z,100249.38
2023-04-07T19:11:10.353Z,100254.00
2023-04-07T19:13:36.940Z,100253.25
2023-04-07T19:16:03.642Z,100263.06
2023-04-07T19:18:31.836Z,100253.53
2023-04-07T19:20:58.541Z,100259.84
2023-04-07T19:23:25.360Z,100266.06
2023-04-07T19:25:52.000Z,100265.47
2023-04-07T19:28:18.669Z,100264.72
2023-04-07T19:30:45.260Z,100266.69
2023-04-07T19:33:12.091Z,100270.47
2023-04-07T19:35:41.556Z,100270.63
2023-04-07T19:38:08.095Z,100275.25
2023-04-07T19:40:36.072Z,100269.34
2023-04-07T19:43:02.704Z,100270.38
2023-04-07T19:45:29.221Z,100279.44
2023-04-07T19:47:56.875Z,100280.44
2023-04-07T19:50:23.748Z,100283.28
2023-04-07T19:52:53.237Z,100286.97
2023-04-07T19:55:20.042Z,100285.31
2023-04-07T19:57:49.999Z,100291.63
2023-04-07T20:00:16.901Z,100291.72
2023-04-07T20:02:43.497Z,100294.63
2023-04-07T20:05:10.354Z,100295.72
2023-04-07T20:07:36.965Z,100289.88
2023-04-07T20:10:03.955Z,100289.16
2023-04-07T20:12:30.661Z,100289.44
2023-04-07T20:14:57.269Z,100301.00
2023-04-07T20:17:23.834Z,100293.25
2023-04-07T20:19:53.676Z,100296.13
2023-04-07T20:22:20.353Z,100295.31
2023-04-07T20:24:46.946Z,100306.81
2023-04-07T20:27:13.392Z,100303.38
2023-04-07T20:29:39.873Z,100306.16
2023-04-07T20:32:06.343Z,100303.69
2023-04-07T20:34:32.973Z,100299.44
2023-04-07T20:36:59.477Z,100308.44
2023-04-07T20:39:26.010Z,100308.53
2023-04-07T20:41:52.566Z,100311.31
2023-04-07T20:44:19.131Z,100314.03
2023-04-07T20:46:48.740Z,100313.38
2023-04-07T20:49:15.256Z,100318.78
2023-04-07T20:51:41.774Z,100324.22
2023-04-07T20:54:08.974Z,100317.31
2023-04-07T20:56:35.570Z,100321.91
2023-04-07T20:59:02.154Z,100325.66
2023-04-07T21:01:28.756Z,100326.66
2023-04-07T21:03:55.495Z,100331.25
2023-04-07T21:06:22.263Z,100332.34
2023-04-07T21:08:49.096Z,100336.91
2023-04-07T21:11:15.832Z,100340.75
2023-04-07T21:13:42.608Z,100334.00
2023-04-07T21:16:09.169Z,100330.75
2023-04-07T21:18:35.846Z,100336.25
2023-04-07T21:21:02.989Z,100342.59
2023-04-07T21:23:31.314Z,100339.34
2023-04-07T21:26:02.448Z,100340.50
2023-04-07T21:28:29.113Z,100345.91
2023-04-07T21:30:56.728Z,100353.13
2023-04-07T21:33:23.575Z,100356.09
2023-04-07T21:35:51.235Z,100353.66
2023-04-07T21:38:18.114Z,100359.94
2023-04-07T21:40:45.002Z,100361.09
2023-04-07T21:43:12.360Z,100362.16
2023-04-07T21:45:39.364Z,100369.44
2023-04-07T21:48:06.616Z,100364.38
2023-04-07T21:50:33.276Z,100362.81
2023-04-07T21:52:59.804Z,100371.78
2023-04-07T21:55:26.479Z,100367.69
2023-04-07T21:57:53.116Z,100373.16
2023-04-07T22:00:20.374Z,100368.09
2023-04-07T22:02:47.241Z,100363.22
2023-04-07T22:05:15.009Z,100377.63
2023-04-07T22:07:41.490Z,100373.56
2023-04-07T22:10:08.628Z,100381.81
2023-04-07T22:12:35.111Z,100379.50
2023-04-07T22:15:01.633Z,100385.00
2023-04-07T22:17:28.179Z,100387.88
2023-04-07T22:19:54.652Z,100392.50
2023-04-07T22:22:21.267Z,100392.66
2023-04-07T22:24:47.735Z,100399.03
2023-04-07T22:27:14.199Z,100391.34
2023-04-07T22:29:40.682Z,100397.59
2023-04-07T22:32:07.155Z,100404.81
2023-04-07T22:34:33.722Z,100395.31
2023-04-07T22:37:00.176Z,100394.66
2023-04-07T22:39:26.683Z,100395.69
2023-04-07T22:41:53.394Z,100399.38
2023-04-07T22:44:19.841Z,100403.94
2023-04-07T22:46:46.474Z,100407.78
2023-04-07T22:49:13.048Z,100401.00
2023-04-07T22:51:39.569Z,100400.41
2023-04-07T22:54:06.078Z,100406.75
2023-04-07T22:56:32.541Z,100411.41
2023-04-07T22:59:05.253Z,100409.94
2023-04-07T23:01:32.066Z,100420.59
2023-04-07T23:03:58.620Z,100417.22
2023-04-07T23:06:25.169Z,100420.03
2023-04-07T23:08:51.909Z,100422.91
2023-04-07T23:11:18.521Z,100419.56
2023-04-07T23:13:45.047Z,100424.97
2023-04-07T23:16:12.856Z,100433.91
2023-04-07T23:18:40.621Z,100435.78
2023-04-07T23:21:07.236Z,100439.38
2023-04-07T23:23:39.080Z,100441.34
2023-04-07T23:26:06.776Z,100443.97
2023-04-07T23:28:33.343Z,100437.00
2023-04-07T23:30:59.882Z,100433.56
2023-04-07T23:33:26.415Z,100440.53
2023-04-07T23:35:52.941Z,100448.53
2023-04-07T23:38:19.429Z,100439.00
2023-04-07T23:40:45.952Z,100442.53
2023-04-07T23:43:12.365Z,100429.59
2023-04-07T23:45:38.853Z,100444.59
2023-04-07T23:48:05.934Z,100449.09
2023-04-07T23:50:32.384Z,100445.75
2023-04-07T23:52:58.828Z,100445.88
2023-04-07T23:55:25.359Z,100456.59
2023-04-07T23:57:51.794Z,100450.69
